createdAt,value
2018-06-02T00:01:14.965Z,19.26
2018-06-02T00:03:43.239Z,19.09
2018-06-02T00:08:45.757Z,19.10
2018-06-02T00:11:14.131Z,18.99
2018-06-02T00:13:42.386Z,19.14
2018-06-02T00:16:10.743Z,19.04
2018-06-02T00:18:39.035Z,18.93
2018-06-02T00:21:07.349Z,18.87
2018-06-02T00:23:35.889Z,18.90
2018-06-02T00:26:04.176Z,18.90
2018-06-02T00:28:32.477Z,19.16
2018-06-02T00:31:04.664Z,19.05
2018-06-02T00:33:33.748Z,18.95
2018-06-02T00:36:02.032Z,18.87
2018-06-02T00:38:30.365Z,18.89
2018-06-02T00:40:58.680Z,18.85
2018-06-02T00:43:27.793Z,18.85
2018-06-02T00:45:56.837Z,18.88
2018-06-02T00:48:25.160Z,18.86
2018-06-02T00:50:54.258Z,18.73
2018-06-02T00:53:23.382Z,18.58
2018-06-02T00:55:51.692Z,18.52
2018-06-02T00:58:20.031Z,18.50
2018-06-02T01:00:49.176Z,18.53
2018-06-02T01:03:17.488Z,18.44
2018-06-02T01:05:46.593Z,18.35
2018-06-02T01:08:15.715Z,18.29
2018-06-02T01:10:44.035Z,18.41
2018-06-02T01:13:12.349Z,18.27
2018-06-02T01:15:41.401Z,18.46
2018-06-02T01:18:09.739Z,18.40
2018-06-02T01:20:38.032Z,18.39
2018-06-02T01:23:06.342Z,18.30
2018-06-02T01:25:34.633Z,18.40
2018-06-02T01:28:02.957Z,18.26
2018-06-02T01:30:31.288Z,18.31
2018-06-02T01:32:59.583Z,18.34
2018-06-02T01:35:28.646Z,18.30
2018-06-02T01:37:56.921Z,18.34
2018-06-02T01:42:59.479Z,18.31
2018-06-02T01:45:27.790Z,18.46
2018-06-02T01:47:56.106Z,18.33
2018-06-02T01:50:25.182Z,18.21
2018-06-02T01:52:53.461Z,18.23
2018-06-02T01:55:21.772Z,18.10
2018-06-02T01:57:50.072Z,18.11
2018-06-02T02:00:18.385Z,17.86
2018-06-02T02:02:46.689Z,18.01
2018-06-02T02:05:15.033Z,17.89
2018-06-02T02:07:43.370Z,17.90
2018-06-02T02:10:11.683Z,18.05
2018-06-02T02:12:39.989Z,17.81
2018-06-02T02:15:08.305Z,17.73
2018-06-02T02:17:36.617Z,17.75
2018-06-02T02:20:04.932Z,17.89
2018-06-02T02:22:33.989Z,17.74
2018-06-02T02:25:02.262Z,17.69
2018-06-02T02:27:30.593Z,17.82
2018-06-02T02:29:59.635Z,17.62
2018-06-02T02:32:28.029Z,17.69
2018-06-02T02:34:56.292Z,17.78
2018-06-02T02:37:24.768Z,17.75
2018-06-02T02:39:53.059Z,17.72
2018-06-02T02:42:21.388Z,17.77
2018-06-02T02:44:49.681Z,17.58
2018-06-02T02:47:18.018Z,17.64
2018-06-02T02:49:47.052Z,17.58
2018-06-02T02:54:49.402Z,17.64
2018-06-02T02:57:18.493Z,17.45
2018-06-02T02:59:46.779Z,17.55
2018-06-02T03:02:19.108Z,17.59
2018-06-02T03:04:47.412Z,17.61
2018-06-02T03:07:15.724Z,17.68
2018-06-02T03:09:44.050Z,17.70
2018-06-02T03:12:12.371Z,17.91
2018-06-02T03:14:41.431Z,17.73
2018-06-02T03:17:09.736Z,17.62
2018-06-02T03:19:38.793Z,17.65
2018-06-02T03:22:07.148Z,17.52
2018-06-02T03:24:35.469Z,17.45
2018-06-02T03:27:03.785Z,17.40
2018-06-02T03:29:32.113Z,17.48
2018-06-02T03:32:01.324Z,17.40
2018-06-02T03:34:29.638Z,17.54
2018-06-02T03:36:57.958Z,17.14
2018-06-02T03:39:26.278Z,17.24
2018-06-02T03:41:55.329Z,17.23
2018-06-02T03:44:23.648Z,17.19
2018-06-02T03:46:52.727Z,17.16
2018-06-02T03:49:21.074Z,17.20
2018-06-02T03:51:49.389Z,17.40
2018-06-02T03:54:17.740Z,17.55
2018-06-02T03:56:46.025Z,17.44
2018-06-02T03:59:14.322Z,17.47
2018-06-02T04:01:42.669Z,17.54
2018-06-02T04:04:10.966Z,17.53
2018-06-02T04:06:39.276Z,17.37
2018-06-02T04:09:08.331Z,17.53
2018-06-02T04:11:36.624Z,17.41
2018-06-02T04:14:04.973Z,17.48
2018-06-02T04:16:33.251Z,17.72
2018-06-02T04:19:01.575Z,17.63
2018-06-02T04:21:29.889Z,17.48
2018-06-02T04:23:59.016Z,17.48
2018-06-02T04:26:27.336Z,17.52
2018-06-02T04:28:56.398Z,17.49
2018-06-02T04:31:24.695Z,17.59
2018-06-02T04:33:53.010Z,17.58
2018-06-02T04:38:55.116Z,17.42
2018-06-02T04:41:23.447Z,17.46
2018-06-02T04:43:51.745Z,17.29
2018-06-02T04:46:20.062Z,17.30
2018-06-02T04:48:48.420Z,17.28
2018-06-02T04:51:16.696Z,17.29
2018-06-02T04:53:45.012Z,17.32
2018-06-02T04:56:13.341Z,17.44
2018-06-02T04:58:41.768Z,17.37
2018-06-02T05:01:13.744Z,17.34
2018-06-02T05:03:42.081Z,17.47
2018-06-02T05:06:10.417Z,17.42
2018-06-02T05:08:39.497Z,17.55
2018-06-02T05:11:07.944Z,17.54
2018-06-02T05:13:36.238Z,17.41
2018-06-02T05:16:04.538Z,17.45
2018-06-02T05:18:33.585Z,17.40
2018-06-02T05:21:01.921Z,17.43
2018-06-02T05:23:31.011Z,17.35
2018-06-02T05:26:00.080Z,17.42
2018-06-02T05:28:28.390Z,17.47
2018-06-02T05:30:56.707Z,17.64
2018-06-02T05:33:24.996Z,17.38
2018-06-02T05:35:53.295Z,17.56
2018-06-02T05:38:21.626Z,17.41
2018-06-02T05:40:49.914Z,17.44
2018-06-02T05:43:18.242Z,17.73
2018-06-02T05:45:47.288Z,17.67
2018-06-02T05:48:15.590Z,17.47
2018-06-02T05:50:43.901Z,17.52
2018-06-02T05:53:13.056Z,17.71
2018-06-02T05:55:41.355Z,17.46
2018-06-02T05:58:09.677Z,17.44
2018-06-02T06:00:37.994Z,17.66
2018-06-02T06:03:06.304Z,17.39
2018-06-02T06:05:35.342Z,17.35
2018-06-02T06:08:03.645Z,17.29
2018-06-02T06:10:31.978Z,17.36
2018-06-02T06:13:00.431Z,17.30
2018-06-02T06:15:29.528Z,17.24
2018-06-02T06:17:58.636Z,17.37
2018-06-02T06:20:26.908Z,17.34
2018-06-02T06:22:55.221Z,17.23
2018-06-02T06:25:23.541Z,17.42
2018-06-02T06:27:51.834Z,17.32
2018-06-02T06:30:20.924Z,17.38
2018-06-02T06:32:49.983Z,17.22
2018-06-02T06:35:18.341Z,17.23
2018-06-02T06:37:50.102Z,17.49
2018-06-02T06:40:18.407Z,17.59
2018-06-02T06:42:46.701Z,17.29
2018-06-02T06:45:15.970Z,17.40
2018-06-02T06:47:44.268Z,17.43
2018-06-02T06:50:12.569Z,17.51
2018-06-02T06:52:40.864Z,17.46
2018-06-02T06:55:09.931Z,17.54
2018-06-02T06:57:38.274Z,17.52
2018-06-02T07:00:07.292Z,17.76
2018-06-02T07:02:35.605Z,17.71
2018-06-02T07:05:04.702Z,17.42
2018-06-02T07:07:33.731Z,17.70
2018-06-02T07:10:02.123Z,17.42
2018-06-02T07:12:32.948Z,17.42
2018-06-02T07:15:03.556Z,17.62
2018-06-02T07:17:32.855Z,17.69
2018-06-02T07:20:01.297Z,17.72
2018-06-02T07:22:29.626Z,17.51
2018-06-02T07:24:57.920Z,17.76
2018-06-02T07:27:26.252Z,17.70
2018-06-02T07:29:55.382Z,18.04
2018-06-02T07:32:23.696Z,17.97
2018-06-02T07:34:52.026Z,17.62
2018-06-02T07:37:23.480Z,17.90
2018-06-02T07:39:54.866Z,18.23
2018-06-02T07:42:23.244Z,17.89
2018-06-02T07:44:51.532Z,17.93
2018-06-02T07:47:19.856Z,17.96
2018-06-02T07:49:48.939Z,18.39
2018-06-02T07:52:17.232Z,18.35
2018-06-02T07:54:45.543Z,18.35
2018-06-02T07:57:13.880Z,18.03
2018-06-02T07:59:42.952Z,18.02
2018-06-02T08:02:11.247Z,17.91
2018-06-02T08:04:40.337Z,18.16
2018-06-02T08:07:09.406Z,17.95
2018-06-02T08:09:37.684Z,18.00
2018-06-02T08:12:05.998Z,18.08
2018-06-02T08:14:35.044Z,17.97
2018-06-02T08:17:03.354Z,18.24
2018-06-02T08:19:32.376Z,17.89
2018-06-02T08:22:00.713Z,18.07
2018-06-02T08:24:29.003Z,18.23
2018-06-02T08:26:58.109Z,18.25
2018-06-02T08:29:27.165Z,17.95
2018-06-02T08:31:55.469Z,18.01
2018-06-02T08:34:23.770Z,18.08
2018-06-02T08:36:55.871Z,18.04
2018-06-02T08:39:24.163Z,18.37
2018-06-02T08:41:52.523Z,18.27
2018-06-02T08:44:20.804Z,18.11
2018-06-02T08:46:49.144Z,18.15
2018-06-02T08:49:18.180Z,18.38
2018-06-02T08:51:46.476Z,18.45
2018-06-02T08:54:14.788Z,18.23
2018-06-02T08:56:43.941Z,18.40
2018-06-02T08:59:12.247Z,18.31
2018-06-02T09:01:40.519Z,18.21
2018-06-02T09:04:09.610Z,18.40
2018-06-02T09:06:38.017Z,18.22
2018-06-02T09:09:06.310Z,18.40
2018-06-02T09:11:34.628Z,18.63
2018-06-02T09:14:02.948Z,18.77
2018-06-02T09:16:32.042Z,18.98
2018-06-02T09:19:01.118Z,19.08
2018-06-02T09:21:29.405Z,19.07
2018-06-02T09:23:57.747Z,18.78
2018-06-02T09:26:26.058Z,19.22
2018-06-02T09:28:54.425Z,19.78
2018-06-02T09:31:22.701Z,19.29
2018-06-02T09:33:50.996Z,19.39
2018-06-02T09:36:20.056Z,19.02
2018-06-02T09:38:48.358Z,19.62
2018-06-02T09:41:16.659Z,19.38
2018-06-02T09:43:45.732Z,19.32
2018-06-02T09:46:14.043Z,19.16
2018-06-02T09:48:42.357Z,19.38
2018-06-02T09:51:10.646Z,19.25
2018-06-02T09:53:38.950Z,19.00
2018-06-02T09:56:07.244Z,19.22
2018-06-02T09:58:36.302Z,18.85
2018-06-02T10:01:04.583Z,19.04
2018-06-02T10:03:32.957Z,19.28
2018-06-02T10:06:01.233Z,18.98
2018-06-02T10:08:29.549Z,19.18
2018-06-02T10:10:57.832Z,19.22
2018-06-02T10:13:26.187Z,19.25
2018-06-02T10:15:54.644Z,19.40
2018-06-02T10:18:22.994Z,19.47
2018-06-02T10:20:51.342Z,19.44
2018-06-02T10:23:19.649Z,19.35
2018-06-02T10:25:48.050Z,19.04
2018-06-02T10:28:16.408Z,18.95
2018-06-02T10:30:44.701Z,19.08
2018-06-02T10:33:13.041Z,19.08
2018-06-02T10:35:46.456Z,19.23
2018-06-02T10:38:14.839Z,19.33
2018-06-02T10:40:43.161Z,19.65
2018-06-02T10:43:11.460Z,19.35
2018-06-02T10:45:40.551Z,19.59
2018-06-02T10:48:08.898Z,19.84
2018-06-02T10:50:37.186Z,19.33
2018-06-02T10:53:05.489Z,19.46
2018-06-02T10:55:34.767Z,19.42
2018-06-02T10:58:03.081Z,19.77
2018-06-02T11:00:32.152Z,20.12
2018-06-02T11:03:00.469Z,20.22
2018-06-02T11:05:29.740Z,20.04
2018-06-02T11:07:58.846Z,20.36
2018-06-02T11:10:27.921Z,20.60
2018-06-02T11:12:56.227Z,20.27
2018-06-02T11:15:25.303Z,20.57
2018-06-02T11:17:54.371Z,21.03
2018-06-02T11:20:22.682Z,20.05
2018-06-02T11:22:51.895Z,20.12
2018-06-02T11:25:21.007Z,20.53
2018-06-02T11:27:49.320Z,20.87
2018-06-02T11:30:17.752Z,20.53
2018-06-02T11:32:46.128Z,20.27
2018-06-02T11:35:15.192Z,20.70
2018-06-02T11:37:43.530Z,19.98
2018-06-02T11:40:11.896Z,20.21
2018-06-02T11:42:40.215Z,20.24
2018-06-02T11:45:08.502Z,20.31
2018-06-02T11:47:36.843Z,20.29
2018-06-02T11:50:05.196Z,20.33
2018-06-02T11:52:34.242Z,20.37
2018-06-02T11:55:02.525Z,20.53
2018-06-02T11:57:30.840Z,20.09
2018-06-02T11:59:59.911Z,20.24
2018-06-02T12:02:28.299Z,20.32
2018-06-02T12:04:57.365Z,20.41
2018-06-02T12:07:25.744Z,20.85
2018-06-02T12:09:54.039Z,20.39
2018-06-02T12:12:22.354Z,20.35
2018-06-02T12:14:50.673Z,20.07
2018-06-02T12:17:18.988Z,20.16
2018-06-02T12:19:47.273Z,20.53
2018-06-02T12:22:16.331Z,20.67
2018-06-02T12:24:44.652Z,20.33
2018-06-02T12:27:12.986Z,20.25
2018-06-02T12:29:41.270Z,20.62
2018-06-02T12:32:09.693Z,20.34
2018-06-02T12:34:37.992Z,20.27
2018-06-02T12:37:06.310Z,20.23
2018-06-02T12:39:34.622Z,19.69
2018-06-02T12:42:02.949Z,19.77
2018-06-02T12:44:31.266Z,20.23
2018-06-02T12:46:59.573Z,20.21
2018-06-02T12:49:27.935Z,20.65
2018-06-02T12:51:56.204Z,20.90
2018-06-02T12:54:24.580Z,20.81
2018-06-02T12:56:53.673Z,21.19
2018-06-02T12:59:22.810Z,20.98
2018-06-02T13:01:51.206Z,21.14
2018-06-02T13:04:19.538Z,20.85
2018-06-02T13:06:48.577Z,20.74
2018-06-02T13:09:16.945Z,20.44
2018-06-02T13:11:45.237Z,20.47
2018-06-02T13:14:13.674Z,20.21
2018-06-02T13:16:42.709Z,19.83
2018-06-02T13:19:11.791Z,19.70
2018-06-02T13:21:40.082Z,19.77
2018-06-02T13:24:08.380Z,19.35
2018-06-02T13:26:36.691Z,19.91
2018-06-02T13:29:05.826Z,19.93
2018-06-02T13:31:34.137Z,19.86
2018-06-02T13:34:02.458Z,19.73
2018-06-02T13:36:30.762Z,19.55
2018-06-02T13:38:59.832Z,19.35
2018-06-02T13:41:28.128Z,19.40
2018-06-02T13:43:56.436Z,19.51
2018-06-02T13:46:24.755Z,20.05
2018-06-02T13:48:53.827Z,19.92
2018-06-02T13:51:22.106Z,20.08
2018-06-02T13:53:51.163Z,19.91
2018-06-02T13:56:19.481Z,19.82
2018-06-02T13:58:47.777Z,20.38
2018-06-02T14:01:16.914Z,19.98
2018-06-02T14:03:45.158Z,20.03
2018-06-02T14:06:13.510Z,19.96
2018-06-02T14:08:41.812Z,20.16
2018-06-02T14:11:11.100Z,19.93
2018-06-02T14:13:40.178Z,20.06
2018-06-02T14:16:08.492Z,20.62
2018-06-02T14:18:36.892Z,20.57
2018-06-02T14:21:05.146Z,20.63
2018-06-02T14:23:33.447Z,20.67
2018-06-02T14:26:01.801Z,20.93
2018-06-02T14:28:30.099Z,21.42
2018-06-02T14:30:58.433Z,21.26
2018-06-02T14:33:26.747Z,21.42
2018-06-02T14:35:55.145Z,21.61
2018-06-02T14:38:23.524Z,21.19
2018-06-02T14:40:51.795Z,21.11
2018-06-02T14:43:20.200Z,21.23
2018-06-02T14:45:48.496Z,21.90
2018-06-02T14:48:16.802Z,21.72
2018-06-02T14:50:45.142Z,22.63
2018-06-02T14:53:13.498Z,21.90
2018-06-02T14:55:41.790Z,22.50
2018-06-02T14:58:10.105Z,22.92
2018-06-02T15:00:39.226Z,22.42
2018-06-02T15:03:07.546Z,22.38
2018-06-02T15:05:35.836Z,23.14
2018-06-02T15:08:04.161Z,22.68
2018-06-02T15:10:32.464Z,21.93
2018-06-02T15:13:00.785Z,22.29
2018-06-02T15:15:29.843Z,22.12
2018-06-02T15:17:58.176Z,22.53
2018-06-02T15:20:26.481Z,22.66
2018-06-02T15:22:55.069Z,22.44
2018-06-02T15:25:23.391Z,22.12
2018-06-02T15:27:52.535Z,22.37
2018-06-02T15:30:20.849Z,22.38
2018-06-02T15:32:49.208Z,21.90
2018-06-02T15:35:17.484Z,21.96
2018-06-02T15:37:45.781Z,22.10
2018-06-02T15:40:14.139Z,21.78
2018-06-02T15:42:42.433Z,21.80
2018-06-02T15:45:10.760Z,22.34
2018-06-02T15:47:39.061Z,22.09
2018-06-02T15:50:07.373Z,22.86
2018-06-02T15:52:35.712Z,22.78
2018-06-02T15:55:04.021Z,22.42
2018-06-02T15:57:32.408Z,21.66
2018-06-02T16:00:00.727Z,21.66
2018-06-02T16:02:29.024Z,21.79
2018-06-02T16:04:57.400Z,21.94
2018-06-02T16:07:25.693Z,22.07
2018-06-02T16:09:53.985Z,21.83
2018-06-02T16:12:22.324Z,21.56
2018-06-02T16:17:25.288Z,22.03
2018-06-02T16:19:57.262Z,22.19
2018-06-02T16:22:26.375Z,21.75
2018-06-02T16:24:54.673Z,21.94
2018-06-02T16:27:22.976Z,21.74
2018-06-02T16:29:51.291Z,21.54
2018-06-02T16:32:20.352Z,21.52
2018-06-02T16:34:48.678Z,21.72
2018-06-02T16:37:17.060Z,21.50
2018-06-02T16:39:45.383Z,21.58
2018-06-02T16:42:13.702Z,22.02
2018-06-02T16:44:42.827Z,21.83
2018-06-02T16:47:11.133Z,21.85
2018-06-02T16:49:39.549Z,22.13
2018-06-02T16:52:08.617Z,21.96
2018-06-02T16:54:36.917Z,22.00
2018-06-02T16:57:05.217Z,21.79
2018-06-02T16:59:33.526Z,21.61
2018-06-02T17:02:01.838Z,21.41
2018-06-02T17:04:30.169Z,21.25
2018-06-02T17:06:58.487Z,21.39
2018-06-02T17:09:26.799Z,21.46
2018-06-02T17:11:55.865Z,21.94
2018-06-02T17:14:24.176Z,21.94
2018-06-02T17:16:53.251Z,21.97
2018-06-02T17:19:21.598Z,22.23
2018-06-02T17:21:49.924Z,21.58
2018-06-02T17:24:19.020Z,21.61
2018-06-02T17:26:48.175Z,21.88
2018-06-02T17:29:16.543Z,21.85
2018-06-02T17:31:44.893Z,22.16
2018-06-02T17:34:13.211Z,22.25
2018-06-02T17:36:41.533Z,21.99
2018-06-02T17:39:09.954Z,22.19
2018-06-02T17:41:38.253Z,22.07
2018-06-02T17:44:06.578Z,21.63
2018-06-02T17:46:34.903Z,21.60
2018-06-02T17:49:03.198Z,21.68
2018-06-02T17:51:31.565Z,21.67
2018-06-02T17:53:59.858Z,21.43
2018-06-02T17:56:28.160Z,21.46
2018-06-02T17:58:56.474Z,21.43
2018-06-02T18:01:24.770Z,21.54
2018-06-02T18:03:53.097Z,21.78
2018-06-02T18:06:21.557Z,21.65
2018-06-02T18:08:49.852Z,21.88
2018-06-02T18:11:19.356Z,21.36
2018-06-02T18:13:48.459Z,21.30
2018-06-02T18:16:18.917Z,21.23
2018-06-02T18:18:51.287Z,21.14
2018-06-02T18:21:19.550Z,21.09
2018-06-02T18:26:22.742Z,21.08
2018-06-02T18:28:51.807Z,21.30
2018-06-02T18:31:20.137Z,21.18
2018-06-02T18:33:48.448Z,21.11
2018-06-02T18:36:16.757Z,21.16
2018-06-02T18:38:45.812Z,21.11
2018-06-02T18:41:14.110Z,21.13
2018-06-02T18:43:42.428Z,21.02
2018-06-02T18:46:11.524Z,20.90
2018-06-02T18:48:40.603Z,20.86
2018-06-02T18:51:09.671Z,20.86
2018-06-02T18:53:38.031Z,20.94
2018-06-02T18:56:07.057Z,20.71
2018-06-02T18:58:35.371Z,20.72
2018-06-02T19:01:03.710Z,20.55
2018-06-02T19:03:32.008Z,20.51
2018-06-02T19:06:01.091Z,20.56
2018-06-02T19:08:29.449Z,20.46
2018-06-02T19:10:57.771Z,20.44
2018-06-02T19:13:26.834Z,20.61
2018-06-02T19:15:55.141Z,20.50
2018-06-02T19:18:24.264Z,20.46
2018-06-02T19:20:52.674Z,20.29
2018-06-02T19:23:20.970Z,20.20
2018-06-02T19:25:52.857Z,20.30
2018-06-02T19:28:21.947Z,20.34
2018-06-02T19:30:51.063Z,20.25
2018-06-02T19:33:19.352Z,20.24
2018-06-02T19:35:47.747Z,20.31
2018-06-02T19:38:16.076Z,20.23
2018-06-02T19:40:45.296Z,20.58
2018-06-02T19:43:13.580Z,20.30
2018-06-02T19:45:41.913Z,20.17
2018-06-02T19:48:10.364Z,20.13
2018-06-02T19:50:38.649Z,20.08
2018-06-02T19:53:06.955Z,20.08
2018-06-02T19:55:35.310Z,20.09
2018-06-02T20:00:37.110Z,19.93
2018-06-02T20:03:05.456Z,19.94
2018-06-02T20:05:33.852Z,19.91
2018-06-02T20:08:02.190Z,19.83
2018-06-02T20:10:30.551Z,19.77
2018-06-02T20:12:58.927Z,19.75
2018-06-02T20:15:28.041Z,19.79
2018-06-02T20:17:56.392Z,19.74
2018-06-02T20:20:25.654Z,19.70
2018-06-02T20:22:54.006Z,19.66
2018-06-02T20:25:22.329Z,19.71
2018-06-02T20:27:50.832Z,19.93
2018-06-02T20:30:19.981Z,19.67
2018-06-02T20:32:49.300Z,19.53
2018-06-02T20:35:17.691Z,19.61
2018-06-02T20:37:46.128Z,19.42
2018-06-02T20:40:14.425Z,19.38
2018-06-02T20:42:42.741Z,19.36
2018-06-02T20:45:11.061Z,19.35
2018-06-02T20:47:40.210Z,19.34
2018-06-02T20:50:08.520Z,19.31
2018-06-02T20:52:36.841Z,19.22
2018-06-02T20:55:05.152Z,19.11
2018-06-02T20:57:34.269Z,19.07
2018-06-02T21:00:02.582Z,18.94
2018-06-02T21:02:30.929Z,19.00
2018-06-02T21:04:59.228Z,18.88
2018-06-02T21:07:27.584Z,18.97
2018-06-02T21:12:30.586Z,18.88
2018-06-02T21:14:59.017Z,18.81
2018-06-02T21:17:27.307Z,18.82
2018-06-02T21:19:55.677Z,18.70
2018-06-02T21:22:24.060Z,18.75
2018-06-02T21:24:53.377Z,18.65
2018-06-02T21:27:21.728Z,18.70
2018-06-02T21:29:50.021Z,18.74
2018-06-02T21:32:18.327Z,18.77
2018-06-02T21:34:47.428Z,18.64
2018-06-02T21:37:15.723Z,18.59
2018-06-02T21:39:44.015Z,18.44
2018-06-02T21:42:12.360Z,18.45
2018-06-02T21:44:41.478Z,18.36
2018-06-02T21:47:10.497Z,18.21
2018-06-02T21:49:39.637Z,18.24
2018-06-02T21:52:08.722Z,18.28
2018-06-02T21:54:37.041Z,18.17
2018-06-02T21:57:05.321Z,18.18
2018-06-02T21:59:33.607Z,18.06
2018-06-02T22:02:01.925Z,17.98
2018-06-02T22:04:30.266Z,17.89
2018-06-02T22:06:58.602Z,17.90
2018-06-02T22:09:31.535Z,17.81
2018-06-02T22:11:59.838Z,17.72
2018-06-02T22:14:28.179Z,17.66
2018-06-02T22:16:56.566Z,17.69
2018-06-02T22:19:24.873Z,17.60
2018-06-02T22:21:53.212Z,17.55
2018-06-02T22:24:21.584Z,17.48
2018-06-02T22:26:49.889Z,17.43
2018-06-02T22:29:18.180Z,17.39
2018-06-02T22:31:46.502Z,17.36
2018-06-02T22:34:15.598Z,17.45
2018-06-02T22:36:47.725Z,17.41
2018-06-02T22:39:16.005Z,17.39
2018-06-02T22:41:45.334Z,17.39
2018-06-02T22:44:14.380Z,17.35
2018-06-02T22:46:45.848Z,17.28
2018-06-02T22:49:14.176Z,17.34
2018-06-02T22:51:57.414Z,17.28
2018-06-02T22:54:26.504Z,17.25
2018-06-02T22:56:54.804Z,17.20
2018-06-02T22:59:23.132Z,17.19
2018-06-02T23:01:52.260Z,17.18
2018-06-02T23:04:20.568Z,17.23
2018-06-02T23:06:48.888Z,17.18
2018-06-02T23:09:17.930Z,17.28
2018-06-02T23:11:46.324Z,17.29
2018-06-02T23:14:14.575Z,17.36
2018-06-02T23:16:42.878Z,17.27
2018-06-02T23:19:11.201Z,17.24
2018-06-02T23:21:40.251Z,17.11
2018-06-02T23:24:08.582Z,17.11
2018-06-02T23:26:37.290Z,17.04
2018-06-02T23:29:05.628Z,16.96
2018-06-02T23:31:34.949Z,16.96
2018-06-02T23:34:04.104Z,16.95
2018-06-02T23:36:32.399Z,16.88
2018-06-02T23:39:01.487Z,16.95
2018-06-02T23:41:29.810Z,16.86
2018-06-02T23:43:58.095Z,16.86
2018-06-02T23:46:26.367Z,16.83
2018-06-02T23:48:55.566Z,16.84
2018-06-02T23:51:23.897Z,16.84
2018-06-02T23:53:52.994Z,16.85
2018-06-02T23:56:23.391Z,16.87
2018-06-02T23:58:51.764Z,16.89
